»·PEaware :: N3023K KSNA-KBLH

N3023K :: KSNA-KBLH

FLIGHT INFORMATION

Flight Status: Arrived
Operator: Privately registered:
United States
More flights under this callsign
Pilot: Tim M. (868)
Aircraft: Unknown
(P28U)
More flights by this aircraft type
Origin: KSNA John Wayne-Orange Co
United States
Destination: KBLH Blythe
United States
More flights between these airports :: More routes between these airports
Route: +MUSEL8 SLI V64 BLH
File this flight plan on PilotEdge
Remarks:
Altitude:
(Current/Filed)
15,000ft
Speed:
(Current/Filed)
162kts
Departed: 23-Nov-20 06:31 PM
Arrived: 23-Nov-20 08:00 PM
Distance/Time
Traveled:
158nm/1:29
Distance/Time
To Go:
Arrived

Flight Plot

Page will automatically refresh every two minutes.

Flight plan parsing failed; only flown route is shown


Map Options




Map Legend


Flown Route
Filed Route
Departure Airport
Arrival Airport
Navaid (VOR, NDB)
Fix

Horizontal Profiles

Position Reports

Time Latitude Longitude Heading Altitude Ground
Speed
23-Nov-20 18:16 33.676084 -117.870905 219 59ft 0kts
23-Nov-20 18:17 33.676084 -117.870905 219 59ft 0kts
23-Nov-20 18:18 33.676084 -117.870905 219 59ft 0kts
23-Nov-20 18:19 33.676084 -117.870905 219 59ft 0kts
23-Nov-20 18:20 33.676084 -117.870905 219 59ft 0kts
23-Nov-20 18:21 33.676084 -117.870905 219 59ft 0kts
23-Nov-20 18:22 33.676084 -117.870905 219 59ft 0kts
23-Nov-20 18:23 33.676084 -117.870905 219 59ft 0kts
23-Nov-20 18:24 33.675987 -117.870126 25 59ft 10kts
23-Nov-20 18:25 33.679559 -117.868047 16 59ft 12kts
23-Nov-20 18:26 33.681496 -117.866636 109 59ft 0kts
23-Nov-20 18:27 33.681496 -117.866636 109 59ft 0kts
23-Nov-20 18:28 33.681496 -117.866636 109 59ft 0kts
23-Nov-20 18:29 33.681496 -117.866636 109 59ft 0kts
23-Nov-20 18:30 33.677966 -117.867350 210 59ft 67kts
23-Nov-20 18:31 33.657132 -117.879754 209 780ft 94kts
23-Nov-20 18:32 33.631292 -117.888682 185 1391ft 103kts
23-Nov-20 18:33 33.601132 -117.893552 187 1903ft 103kts
23-Nov-20 18:34 33.574553 -117.895248 191 2532ft 101kts
23-Nov-20 18:35 33.545937 -117.896414 187 3022ft 105kts
23-Nov-20 18:36 33.518774 -117.897110 185 3625ft 110kts
23-Nov-20 18:37 33.490950 -117.899817 196 4378ft 98kts
23-Nov-20 18:38 33.484351 -117.923126 294 5034ft 84kts
23-Nov-20 18:39 33.491012 -117.951225 293 5754ft 81kts
23-Nov-20 18:40 33.496104 -117.979293 286 6437ft 85kts
23-Nov-20 18:41 33.507492 -118.000724 332 7136ft 82kts
23-Nov-20 18:42 33.528811 -117.999809 1 7854ft 81kts
23-Nov-20 18:43 33.552853 -117.995546 356 8502ft 92kts
23-Nov-20 18:44 33.575688 -117.998827 342 9432ft 84kts
23-Nov-20 18:45 33.601464 -118.004675 340 10260ft 92kts
23-Nov-20 18:47 33.626156 -118.014267 338 11112ft 94kts
23-Nov-20 18:48 33.653639 -118.020772 344 11800ft 103kts
23-Nov-20 18:49 33.680532 -118.027552 328 12789ft 80kts
23-Nov-20 18:50 33.703717 -118.033155 347 13621ft 98kts
23-Nov-20 18:51 33.730790 -118.038155 340 14460ft 98kts
23-Nov-20 18:52 33.755475 -118.047466 326 15205ft 90kts
23-Nov-20 18:53 33.785952 -118.047698 20 14993ft 144kts
23-Nov-20 18:54 33.777620 -117.993844 110 15060ft 192kts
23-Nov-20 18:55 33.769302 -117.932941 80 15024ft 186kts
23-Nov-20 18:56 33.764441 -117.870182 85 14988ft 185kts
23-Nov-20 18:57 33.760249 -117.808313 87 15030ft 184kts
23-Nov-20 18:58 33.755280 -117.746694 81 15040ft 182kts
23-Nov-20 18:59 33.754732 -117.685799 74 15051ft 181kts
23-Nov-20 19:00 33.752067 -117.624263 88 15067ft 187kts
23-Nov-20 19:01 33.745892 -117.561820 85 15039ft 188kts
23-Nov-20 19:02 33.738789 -117.499012 89 15028ft 189kts
23-Nov-20 19:02 33.733700 -117.447056 85 15009ft 190kts
23-Nov-20 19:04 33.726117 -117.373884 89 15006ft 190kts
23-Nov-20 19:04 33.722740 -117.321346 82 15004ft 185kts
23-Nov-20 19:06 33.718182 -117.248932 87 15064ft 182kts
23-Nov-20 19:06 33.717055 -117.198018 81 15058ft 185kts
23-Nov-20 19:07 33.712034 -117.135351 89 15013ft 189kts
23-Nov-20 19:08 33.703569 -117.072919 88 15049ft 186kts
23-Nov-20 19:09 33.702811 -117.011474 89 15063ft 187kts
23-Nov-20 19:10 33.697945 -116.949105 89 15025ft 189kts
23-Nov-20 19:11 33.694877 -116.886800 87 15004ft 186kts
23-Nov-20 19:12 33.689975 -116.824571 99 14907ft 192kts
23-Nov-20 19:13 33.680815 -116.762471 97 14921ft 188kts
23-Nov-20 19:14 33.675918 -116.700806 86 14896ft 185kts
23-Nov-20 19:15 33.670210 -116.639649 98 14953ft 185kts
23-Nov-20 19:16 33.662746 -116.578469 91 14972ft 184kts
23-Nov-20 19:17 33.656944 -116.516805 87 14902ft 189kts
23-Nov-20 19:18 33.655489 -116.454381 83 14860ft 185kts
23-Nov-20 19:19 33.651781 -116.392404 85 14836ft 188kts
23-Nov-20 19:20 33.644196 -116.330057 93 15042ft 186kts
23-Nov-20 19:21 33.635783 -116.266993 87 14987ft 189kts
23-Nov-20 19:22 33.633416 -116.205238 103 15182ft 197kts
23-Nov-20 19:23 33.626802 -116.141595 73 15208ft 190kts
23-Nov-20 19:24 33.623723 -116.077353 86 15144ft 198kts
23-Nov-20 19:25 33.619240 -116.011749 80 15171ft 197kts
23-Nov-20 19:26 33.620326 -115.946453 74 15258ft 182kts
23-Nov-20 19:27 33.622151 -115.881473 82 15081ft 197kts
23-Nov-20 19:28 33.624709 -115.816935 88 15035ft 196kts
23-Nov-20 19:29 33.620471 -115.752546 76 15016ft 191kts
23-Nov-20 19:30 33.627065 -115.690755 79 15051ft 203kts
23-Nov-20 19:31 33.620803 -115.622714 91 14918ft 201kts
23-Nov-20 19:32 33.616029 -115.558905 84 15124ft 195kts
23-Nov-20 19:33 33.606188 -115.493473 106 15258ft 187kts
23-Nov-20 19:34 33.593528 -115.430723 84 15150ft 206kts
23-Nov-20 19:35 33.593023 -115.362071 81 14431ft 199kts
23-Nov-20 19:36 33.601443 -115.296160 70 13354ft 196kts
23-Nov-20 19:37 33.615155 -115.234943 88 12144ft 193kts
23-Nov-20 19:38 33.605900 -115.170681 107 10656ft 195kts
23-Nov-20 19:39 33.597423 -115.112838 76 9955ft 163kts
23-Nov-20 19:40 33.601613 -115.062223 81 9592ft 152kts
23-Nov-20 19:41 33.604442 -115.012203 82 9233ft 145kts
23-Nov-20 19:42 33.604353 -114.963356 91 8832ft 147kts
23-Nov-20 19:43 33.599921 -114.913162 91 8271ft 158kts
23-Nov-20 19:44 33.598120 -114.861029 87 7483ft 154kts
23-Nov-20 19:45 33.597696 -114.808256 86 6442ft 154kts
23-Nov-20 19:46 33.597879 -114.756873 70 6034ft 154kts
23-Nov-20 19:47 33.617256 -114.710806 56 4901ft 164kts
23-Nov-20 19:48 33.634174 -114.662692 62 3997ft 167kts
23-Nov-20 19:49 33.652051 -114.619971 55 4214ft 143kts
23-Nov-20 19:50 33.653631 -114.574012 103 4264ft 151kts
23-Nov-20 19:51 33.647103 -114.526701 45 4223ft 140kts
23-Nov-20 19:52 33.666367 -114.544985 276 3861ft 106kts
23-Nov-20 19:53 33.663064 -114.581879 226 2749ft 126kts
23-Nov-20 19:54 33.644424 -114.607009 250 2198ft 93kts
23-Nov-20 19:55 33.636798 -114.635766 255 1713ft 90kts
23-Nov-20 19:56 33.629481 -114.665476 254 1051ft 98kts
23-Nov-20 19:57 33.616100 -114.689984 213 1020ft 92kts
23-Nov-20 19:58 33.604886 -114.709983 279 904ft 72kts
23-Nov-20 19:59 33.618293 -114.716828 3 398ft 13kts
23-Nov-20 20:00 33.616015 -114.716155 135 397ft 13kts
23-Nov-20 20:01 33.614494 -114.712758 213 396ft 13kts
23-Nov-20 20:02 33.614263 -114.713574 270 396ft 0kts
23-Nov-20 20:03 33.614263 -114.713574 270 396ft 0kts
23-Nov-20 20:04 33.614263 -114.713574 270 396ft 0kts
23-Nov-20 20:05 33.614263 -114.713574 270 396ft 0kts

Navigation Log

Ident Type
Flight plan parsing failed, navigation log unavailable